createdAt,value
2019-03-10T00:01:49.431Z,100.00
2019-03-10T00:06:53.529Z,100.00
2019-03-10T00:11:57.575Z,100.00
2019-03-10T00:17:01.931Z,100.00
2019-03-10T00:22:06.761Z,100.00
2019-03-10T00:27:10.937Z,100.00
2019-03-10T00:32:15.000Z,100.00
2019-03-10T00:37:19.026Z,100.00
2019-03-10T00:42:40.977Z,100.00
2019-03-10T00:48:08.761Z,100.00
2019-03-10T00:53:12.871Z,100.00
2019-03-10T00:58:17.897Z,100.00
2019-03-10T01:03:21.975Z,100.00
2019-03-10T01:08:26.186Z,100.00
2019-03-10T01:13:30.306Z,100.00
2019-03-10T01:18:34.516Z,100.00
2019-03-10T01:23:38.613Z,100.00
2019-03-10T01:28:42.773Z,100.00
2019-03-10T01:34:03.581Z,100.00
2019-03-10T01:39:10.841Z,100.00
2019-03-10T01:44:14.987Z,100.00
2019-03-10T01:49:19.191Z,100.00
2019-03-10T01:54:23.463Z,100.00
2019-03-10T01:59:27.655Z,100.00
2019-03-10T02:04:31.815Z,100.00
2019-03-10T02:09:35.910Z,100.00
2019-03-10T02:14:40.145Z,100.00
2019-03-10T02:19:44.391Z,100.00
2019-03-10T02:24:48.525Z,100.00
2019-03-10T02:29:52.698Z,99.99
2019-03-10T02:34:56.803Z,99.39
2019-03-10T02:40:01.026Z,98.70
2019-03-10T02:45:05.332Z,98.32
2019-03-10T02:50:09.829Z,97.74
2019-03-10T02:55:14.029Z,96.67
2019-03-10T03:00:18.316Z,95.75
2019-03-10T03:05:22.457Z,95.08
2019-03-10T03:10:26.625Z,92.18
2019-03-10T03:15:30.734Z,90.64
2019-03-10T03:20:34.862Z,88.65
2019-03-10T03:25:39.002Z,87.38
2019-03-10T03:30:43.128Z,87.92
2019-03-10T03:35:50.641Z,88.51
2019-03-10T03:41:00.660Z,89.10
2019-03-10T03:46:04.878Z,87.13
2019-03-10T03:51:09.061Z,87.06
2019-03-10T03:56:13.143Z,86.44
2019-03-10T04:01:17.312Z,86.52
2019-03-10T04:06:21.403Z,86.63
2019-03-10T04:11:25.527Z,87.43
2019-03-10T04:16:29.703Z,87.59
2019-03-10T04:21:33.836Z,85.92
2019-03-10T04:26:37.961Z,85.13
2019-03-10T04:31:42.051Z,85.31
2019-03-10T04:36:46.143Z,86.36
2019-03-10T04:41:50.318Z,86.25
2019-03-10T04:46:54.456Z,87.01
2019-03-10T04:51:58.511Z,87.10
2019-03-10T04:57:02.720Z,86.98
2019-03-10T05:02:07.031Z,87.37
2019-03-10T05:07:11.125Z,87.15
2019-03-10T05:12:15.201Z,87.12
2019-03-10T05:17:19.433Z,86.88
2019-03-10T05:22:23.506Z,84.28
2019-03-10T05:27:27.666Z,83.93
2019-03-10T05:32:31.808Z,85.56
2019-03-10T05:37:35.862Z,86.42
2019-03-10T05:42:39.986Z,86.91
2019-03-10T05:47:44.016Z,88.21
2019-03-10T05:52:48.085Z,88.57
2019-03-10T05:57:52.215Z,88.04
2019-03-10T06:02:56.336Z,87.41
2019-03-10T06:08:00.440Z,88.18
2019-03-10T06:13:04.561Z,91.73
2019-03-10T06:18:13.615Z,93.70
2019-03-10T06:23:14.496Z,93.55
2019-03-10T06:28:18.596Z,91.40
2019-03-10T06:33:22.686Z,91.38
2019-03-10T06:38:26.854Z,88.39
2019-03-10T06:43:31.023Z,85.84
2019-03-10T06:48:35.151Z,86.54
2019-03-10T06:53:39.176Z,87.17
2019-03-10T06:58:43.270Z,88.15
2019-03-10T07:03:47.511Z,86.78
2019-03-10T07:08:51.556Z,84.65
2019-03-10T07:13:55.656Z,77.06
2019-03-10T07:18:59.866Z,75.00
2019-03-10T07:24:03.932Z,73.89
2019-03-10T07:29:07.975Z,73.56
2019-03-10T07:34:12.082Z,75.37
2019-03-10T07:39:16.195Z,75.94
2019-03-10T07:44:20.646Z,77.41
2019-03-10T07:49:24.785Z,81.56
2019-03-10T07:54:28.805Z,78.93
2019-03-10T07:59:32.966Z,72.22
2019-03-10T08:04:37.226Z,72.22
2019-03-10T08:09:41.323Z,70.88
2019-03-10T08:14:45.370Z,68.04
2019-03-10T08:19:49.491Z,66.67
2019-03-10T08:24:53.625Z,67.57
2019-03-10T08:30:07.126Z,66.75
2019-03-10T08:35:11.156Z,62.43
2019-03-10T08:40:15.365Z,66.16
2019-03-10T08:45:19.500Z,64.82
2019-03-10T08:50:23.686Z,65.11
2019-03-10T08:55:30.001Z,64.41
2019-03-10T09:00:34.186Z,65.40
2019-03-10T09:05:38.391Z,66.36
2019-03-10T09:10:42.507Z,66.87
2019-03-10T09:15:46.626Z,64.60
2019-03-10T09:20:50.655Z,63.84
2019-03-10T09:25:54.726Z,60.14
2019-03-10T09:30:59.190Z,61.46
2019-03-10T09:36:03.296Z,60.95
2019-03-10T09:41:07.386Z,63.27
2019-03-10T09:46:11.541Z,62.24
2019-03-10T09:51:15.610Z,61.03
2019-03-10T09:56:19.797Z,60.08
2019-03-10T10:01:23.928Z,60.66
2019-03-10T10:06:28.313Z,60.89
2019-03-10T10:11:32.442Z,58.15
2019-03-10T10:16:36.542Z,59.60
2019-03-10T10:21:40.671Z,57.69
2019-03-10T10:26:44.831Z,57.69
2019-03-10T10:31:49.006Z,56.24
2019-03-10T10:36:55.362Z,58.02
2019-03-10T10:41:59.742Z,58.02
2019-03-10T10:47:03.814Z,56.14
2019-03-10T10:52:07.976Z,55.52
2019-03-10T10:57:12.181Z,56.27
2019-03-10T11:02:16.295Z,55.91
2019-03-10T11:07:20.546Z,54.94
2019-03-10T11:12:24.792Z,53.52
2019-03-10T11:17:28.918Z,57.77
2019-03-10T11:22:33.162Z,56.89
2019-03-10T11:27:37.309Z,63.80
2019-03-10T11:32:41.547Z,62.48
2019-03-10T11:37:45.685Z,76.53
2019-03-10T11:42:49.942Z,78.73
2019-03-10T11:47:54.002Z,80.47
2019-03-10T11:52:58.194Z,85.72
2019-03-10T11:58:02.384Z,83.20
2019-03-10T12:03:06.482Z,82.79
2019-03-10T12:08:10.842Z,84.20
2019-03-10T12:13:15.022Z,85.97
2019-03-10T12:18:19.292Z,84.89
2019-03-10T12:23:23.416Z,87.43
2019-03-10T12:28:27.457Z,86.65
2019-03-10T12:33:31.557Z,83.13
2019-03-10T12:38:35.690Z,79.64
2019-03-10T12:43:39.841Z,81.64
2019-03-10T12:48:44.126Z,80.99
2019-03-10T12:53:48.302Z,74.45
2019-03-10T12:58:52.408Z,70.76
2019-03-10T13:03:59.081Z,72.03
2019-03-10T13:09:02.422Z,70.97
2019-03-10T13:14:06.684Z,70.19
2019-03-10T13:19:10.787Z,72.72
2019-03-10T13:24:14.857Z,72.70
2019-03-10T13:29:19.221Z,72.88
2019-03-10T13:34:23.439Z,72.67
2019-03-10T13:39:27.565Z,72.82
2019-03-10T13:44:31.942Z,74.15
2019-03-10T13:49:36.071Z,67.71
2019-03-10T13:54:40.169Z,67.06
2019-03-10T13:59:44.722Z,69.46
2019-03-10T14:04:48.886Z,74.61
2019-03-10T14:09:53.032Z,73.55
2019-03-10T14:14:57.395Z,71.54
2019-03-10T14:20:01.506Z,77.06
2019-03-10T14:25:05.866Z,85.19
2019-03-10T14:30:10.367Z,90.79
2019-03-10T14:35:15.188Z,93.44
2019-03-10T14:40:19.330Z,91.11
2019-03-10T14:45:23.462Z,89.61
2019-03-10T14:50:27.528Z,86.72
2019-03-10T14:55:31.631Z,86.82
2019-03-10T15:00:35.894Z,85.62
2019-03-10T15:05:40.030Z,85.72
2019-03-10T15:10:44.293Z,88.11
2019-03-10T15:15:48.458Z,90.08
2019-03-10T15:20:52.618Z,90.01
2019-03-10T15:25:56.842Z,87.82
2019-03-10T15:31:00.997Z,87.85
2019-03-10T15:36:05.117Z,85.30
2019-03-10T15:41:09.234Z,86.21
2019-03-10T15:46:13.422Z,87.61
2019-03-10T15:51:17.494Z,90.04
2019-03-10T15:56:21.999Z,90.33
2019-03-10T16:01:26.113Z,87.33
2019-03-10T16:06:30.481Z,86.47
2019-03-10T16:11:34.866Z,85.60
2019-03-10T16:16:39.041Z,84.60
2019-03-10T16:21:43.376Z,84.08
2019-03-10T16:26:47.442Z,84.46
2019-03-10T16:31:51.517Z,84.78
2019-03-10T16:36:55.830Z,85.18
2019-03-10T16:41:59.902Z,83.50
2019-03-10T16:47:03.986Z,83.38
2019-03-10T16:52:08.077Z,84.99
2019-03-10T16:57:12.238Z,84.88
2019-03-10T17:02:16.413Z,83.89
2019-03-10T17:07:20.526Z,85.12
2019-03-10T17:12:24.711Z,86.67
2019-03-10T17:17:28.807Z,86.04
2019-03-10T17:22:33.022Z,92.53
2019-03-10T17:27:37.103Z,93.29
2019-03-10T17:32:41.209Z,90.84
2019-03-10T17:37:48.143Z,91.35
2019-03-10T17:42:51.477Z,90.54
2019-03-10T17:47:55.602Z,90.87
2019-03-10T17:52:59.875Z,90.68
2019-03-10T17:58:04.032Z,90.97
2019-03-10T18:03:08.317Z,91.17
2019-03-10T18:08:12.437Z,91.66
2019-03-10T18:13:17.710Z,92.54
2019-03-10T18:18:21.782Z,92.51
2019-03-10T18:23:25.858Z,89.79
2019-03-10T18:28:30.118Z,85.62
2019-03-10T18:33:34.184Z,85.57
2019-03-10T18:38:38.422Z,83.75
2019-03-10T18:43:42.582Z,82.75
2019-03-10T18:48:46.797Z,81.40
2019-03-10T18:53:50.850Z,78.95
2019-03-10T18:58:57.245Z,80.19
2019-03-10T19:04:01.312Z,81.79
2019-03-10T19:09:07.154Z,83.70
2019-03-10T19:14:12.241Z,82.08
2019-03-10T19:19:16.252Z,82.75
2019-03-10T19:24:20.350Z,83.44
2019-03-10T19:29:24.518Z,89.47
2019-03-10T19:34:28.667Z,90.81
2019-03-10T19:39:32.736Z,92.67
2019-03-10T19:44:36.847Z,93.30
2019-03-10T19:49:40.914Z,91.87
2019-03-10T19:54:44.942Z,92.10
2019-03-10T19:59:49.092Z,91.17
2019-03-10T20:04:53.127Z,90.21
2019-03-10T20:09:57.246Z,90.01
2019-03-10T20:15:01.411Z,88.23
2019-03-10T20:20:07.017Z,87.60
2019-03-10T20:25:11.669Z,87.22
2019-03-10T20:30:17.072Z,87.77
2019-03-10T20:35:21.195Z,87.39
2019-03-10T20:40:25.366Z,83.78
2019-03-10T20:45:29.472Z,80.93
2019-03-10T20:50:33.576Z,82.15
2019-03-10T20:55:37.661Z,80.89
2019-03-10T21:00:41.839Z,82.74
2019-03-10T21:05:46.153Z,82.68
2019-03-10T21:10:50.233Z,87.54
2019-03-10T21:15:54.512Z,91.82
2019-03-10T21:20:58.793Z,91.43
2019-03-10T21:26:02.957Z,87.41
2019-03-10T21:31:07.202Z,86.71
2019-03-10T21:36:11.535Z,85.30
2019-03-10T21:41:15.656Z,86.11
2019-03-10T21:46:19.987Z,82.99
2019-03-10T21:51:24.431Z,80.62
2019-03-10T21:56:28.653Z,78.70
2019-03-10T22:01:32.782Z,81.17
2019-03-10T22:06:37.027Z,81.01
2019-03-10T22:11:41.521Z,81.43
2019-03-10T22:16:45.945Z,81.37
2019-03-10T22:21:50.059Z,79.71
2019-03-10T22:26:54.238Z,76.43
2019-03-10T22:31:58.518Z,75.56
2019-03-10T22:37:04.342Z,74.32
2019-03-10T22:42:08.438Z,74.90
2019-03-10T22:47:12.658Z,75.40
2019-03-10T22:52:16.757Z,76.60
2019-03-10T22:57:20.901Z,78.08
2019-03-10T23:02:27.777Z,85.74
2019-03-10T23:07:32.010Z,88.45
2019-03-10T23:12:36.188Z,89.53
2019-03-10T23:17:40.709Z,89.71
2019-03-10T23:22:44.837Z,86.14
2019-03-10T23:27:48.967Z,86.40
2019-03-10T23:32:53.222Z,85.62
2019-03-10T23:37:57.217Z,84.92
2019-03-10T23:43:01.310Z,87.05
2019-03-10T23:48:05.472Z,86.39
2019-03-10T23:53:09.787Z,86.44
2019-03-10T23:58:13.907Z,88.95
